Terminal Aerodrome Forecast
Issued by NWS

Home | Current Version | Previous Version | Text Only | Print | Product List | Glossary On
Versions: 1 2 3 4 5 6 7 8 9 10 11 12 13 14 15 16 17 18 19
000
FTUS46 KMTR 230900 AAA
TAFMRY
TAF AMD
KMRY 230922Z 2309/2406 24004KT P6SM SKC
     FM231800 29010KT P6SM SKC
     FM232000 27013G19KT P6SM SKC
     FM240300 23006KT P6SM SKC=

USA.gov is the U.S. government's official web portal to all federal, state and local government web resources and services.